KRSV

Details ICAO KRSV
Name ROBINSON MUNI
Region United States
Timezone America/Chicago (UTC-6.0)
Plans Departing 0
Arriving 5
Stats Elevation 462 ft / 141 m (AMSL)
Location 39.015937° -87.649224°
Runways 2
Magnetic Variation 3.502° W
Sunrise 2017-12-14 13:03:15 UTC / 2017-12-14 07:03:15 Local
Sunset 2017-12-14 22:30:19 UTC / 2017-12-14 16:30:19 Local
Advertisement - Login to hide

Runways

ID Width Length Bearing (true) Bearing (mag) Surface Threshold Offset Overrun Length
09 75 ft / 23 m 5,097 ft / 1,553 m 91.82° 95.32° Asphalt 0 ft / 0 m 0 ft / 0 m
17 75 ft / 23 m 3,405 ft / 1,038 m 165.85° 169.35° Asphalt 0 ft / 0 m 0 ft / 0 m
27 75 ft / 23 m 5,097 ft / 1,553 m 271.83° 275.33° Asphalt 0 ft / 0 m 0 ft / 0 m
35 75 ft / 23 m 3,405 ft / 1,038 m 345.85° 349.35° Asphalt 0 ft / 0 m 0 ft / 0 m

Map

Weather


0- 5 10 15 20 25 30 35+ Temperature / ° C

Clouds and Precipitation
Forecast for 2017-12-15 00:00 UTC. Updated 2 hours ago

Ground ~20,000 ft ~40,000 ft Winds

METAR

KRSV 142035Z AUTO 09004KT 10SM OVC032 00/M06 A3008 RMK AO2 T10021064

TAF

Not found

Frequencies

Recorded 120.50 MHz AWOS 3
Approach 119.25 MHz HULMAN APP/DEP
Unicom 123.00 MHz CTAF/UNICOM
Approach 125.60 MHz HULMAN APP/DEP
Warning: Do not use this data for real-world aviation or navigation. No guarantee of current accuracy is given.